Time;durP1;ratioP1;P1;durP2;ratioP2;P2;SDS_P1;SDS_P2;PMS_P1;PMS_P2;Temp;Humidity;BMP_temperature;BMP_pressure;BME280_temperature;BME280_humidity;BME280_pressure;Samples;Min_cycle;Max_cycle;Signal;HPM_P1;HPM_P2
2023/02/27 00:01:01;;;;;;;7.17;3.17;;;-1.40;99.90;;;;;;4885278;29;20211;-90
2023/02/27 00:03:27;;;;;;;4.10;2.83;;;-1.40;99.90;;;;;;4885786;29;20203;-91
2023/02/27 00:05:55;;;;;;;5.13;3.07;;;-1.50;99.90;;;;;;4885677;29;20447;-90
2023/02/27 00:10:56;;;;;;;5.00;3.17;;;-1.50;99.90;;;;;;4895843;23;20251;-91
2023/02/27 00:13:21;;;;;;;3.90;2.67;;;-1.40;99.90;;;;;;4882933;29;20187;-90
2023/02/27 00:15:49;;;;;;;6.23;2.60;;;-1.50;99.90;;;;;;4867203;29;20187;-91
2023/02/27 00:18:15;;;;;;;5.27;2.60;;;-1.50;99.90;;;;;;4883704;29;20240;-90
2023/02/27 00:20:47;;;;;;;4.87;2.57;;;-1.50;99.90;;;;;;4883602;29;20212;-92
2023/02/27 00:23:14;;;;;;;4.50;2.70;;;-1.50;99.90;;;;;;4867051;29;20251;-90
2023/02/27 00:25:40;;;;;;;4.00;2.00;;;-1.50;99.90;;;;;;4866934;29;20192;-91
2023/02/27 00:28:06;;;;;;;5.13;2.63;;;-1.60;99.90;;;;;;4866463;29;20180;-90
2023/02/27 00:30:34;;;;;;;3.37;2.57;;;-1.70;99.90;;;;;;4866886;29;20256;-91
2023/02/27 00:33:00;;;;;;;3.23;2.20;;;-1.70;99.90;;;;;;4866986;29;20198;-92
2023/02/27 00:35:26;;;;;;;5.17;2.53;;;-1.60;99.90;;;;;;4866811;29;20957;-90
2023/02/27 00:37:51;;;;;;;3.77;2.30;;;-1.60;99.90;;;;;;4867099;29;20270;-92
2023/02/27 00:40:18;;;;;;;4.80;2.30;;;-1.60;99.90;;;;;;4878131;29;20362;-91
2023/02/27 00:42:45;;;;;;;3.50;2.30;;;-1.70;99.90;;;;;;4885396;29;20215;-89
2023/02/27 00:45:11;;;;;;;3.93;2.30;;;-1.70;99.90;;;;;;4885484;29;20183;-92
2023/02/27 00:47:36;;;;;;;4.53;2.23;;;-1.70;99.90;;;;;;4885312;29;20250;-91
2023/02/27 00:50:03;;;;;;;6.83;2.50;;;-1.70;99.90;;;;;;4884982;29;20615;-91
2023/02/27 00:52:29;;;;;;;4.10;2.53;;;-1.70;99.90;;;;;;4885098;29;20221;-90
2023/02/27 00:54:54;;;;;;;3.53;2.50;;;-1.80;99.90;;;;;;4884869;29;20214;-92
2023/02/27 00:57:20;;;;;;;5.73;2.20;;;-1.80;99.90;;;;;;4900676;29;20183;-91
2023/02/27 00:59:47;;;;;;;4.67;2.63;;;-1.80;99.90;;;;;;4884814;29;20191;-91
2023/02/27 01:02:13;;;;;;;4.53;2.50;;;-1.80;99.90;;;;;;4884906;29;20227;-91
2023/02/27 01:04:39;;;;;;;5.07;2.40;;;-1.80;99.90;;;;;;4884983;29;20596;-91
2023/02/27 01:07:04;;;;;;;3.37;2.30;;;-1.80;99.90;;;;;;4885150;29;20187;-91
2023/02/27 01:09:30;;;;;;;4.27;2.57;;;-1.80;99.90;;;;;;4884266;29;20235;-91
2023/02/27 01:11:56;;;;;;;5.03;2.53;;;-1.90;99.90;;;;;;4900202;29;20345;-91
2023/02/27 01:14:22;;;;;;;4.40;2.87;;;-1.90;99.90;;;;;;4884878;29;20187;-91
2023/02/27 01:16:48;;;;;;;3.27;2.30;;;-1.90;99.90;;;;;;4884721;29;20190;-91
2023/02/27 01:19:14;;;;;;;4.47;2.17;;;-1.90;99.90;;;;;;4884559;29;20191;-92
2023/02/27 01:21:42;;;;;;;4.57;2.43;;;-1.90;99.90;;;;;;4884524;29;20305;-91
2023/02/27 01:24:09;;;;;;;5.53;2.47;;;-2.00;99.90;;;;;;4884444;29;20600;-92
2023/02/27 01:26:35;;;;;;;3.43;2.03;;;-2.10;99.90;;;;;;4884640;29;20281;-91
2023/02/27 01:29:01;;;;;;;5.10;2.40;;;-2.20;99.90;;;;;;4884404;29;20747;-93
2023/02/27 01:31:27;;;;;;;4.70;2.53;;;-2.40;99.90;;;;;;4884783;29;20187;-93
2023/02/27 01:33:53;;;;;;;4.40;2.37;;;-2.30;99.90;;;;;;4884645;29;20282;-91
2023/02/27 01:36:19;;;;;;;4.17;2.23;;;-2.40;99.90;;;;;;4884743;29;20223;-94
2023/02/27 01:38:45;;;;;;;5.83;2.60;;;-2.40;99.90;;;;;;4884687;29;20990;-92
2023/02/27 01:41:13;;;;;;;4.47;2.43;;;-2.40;99.90;;;;;;4883140;29;20336;-91
2023/02/27 01:44:02;;;;;;;4.10;2.40;;;-2.30;99.90;;;;;;4883655;29;20495;-91
2023/02/27 01:46:29;;;;;;;6.73;2.47;;;-2.20;99.90;;;;;;4884025;29;20183;-91
2023/02/27 01:48:59;;;;;;;4.40;2.27;;;-2.10;99.90;;;;;;4884241;29;20268;-91
2023/02/27 01:52:01;;;;;;;3.33;2.03;;;-2.00;99.90;;;;;;4884153;29;20183;-91
2023/02/27 01:54:30;;;;;;;5.33;2.40;;;-2.00;99.90;;;;;;4872015;29;20198;-91
2023/02/27 01:56:56;;;;;;;5.83;2.50;;;-2.00;99.90;;;;;;4865689;29;20187;-92
2023/02/27 01:59:22;;;;;;;4.43;2.17;;;-1.90;99.90;;;;;;4865451;29;20184;-92
2023/02/27 02:01:56;;;;;;;3.60;1.97;;;-1.90;99.90;;;;;;4865368;29;20234;-92
2023/02/27 02:04:29;;;;;;;4.37;2.10;;;-1.90;99.90;;;;;;4865519;29;20671;-90
2023/02/27 02:07:07;;;;;;;3.33;2.10;;;-1.90;99.90;;;;;;4865416;29;20271;-91
2023/02/27 02:09:38;;;;;;;4.57;1.87;;;-2.00;99.90;;;;;;4864834;29;20663;-91
2023/02/27 02:12:07;;;;;;;3.70;2.33;;;-2.00;99.90;;;;;;4880829;29;20188;-90
2023/02/27 02:14:32;;;;;;;5.03;2.30;;;-2.10;99.90;;;;;;4881976;29;20194;-90
2023/02/27 02:17:07;;;;;;;4.30;2.00;;;-2.10;99.90;;;;;;4880833;29;20213;-91
2023/02/27 02:20:06;;;;;;;3.63;2.00;;;-2.20;99.90;;;;;;4880899;29;20266;-90
2023/02/27 02:23:10;;;;;;;5.20;2.53;;;-2.30;99.90;;;;;;4880713;29;20191;-91
2023/02/27 02:25:51;;;;;;;5.83;2.20;;;-2.40;99.90;;;;;;4880357;29;20191;-92
2023/02/27 02:29:08;;;;;;;3.93;2.00;;;-2.40;99.90;;;;;;4880589;29;20195;-92
2023/02/27 02:32:10;;;;;;;3.00;1.87;;;-2.40;99.90;;;;;;4866570;29;20210;-94
2023/02/27 02:35:05;;;;;;;4.07;1.67;;;-2.40;99.90;;;;;;4865440;29;20194;-91
2023/02/27 02:37:47;;;;;;;5.20;2.00;;;-2.40;99.90;;;;;;4861292;29;20223;-91
2023/02/27 02:40:44;;;;;;;6.70;1.93;;;-2.30;99.90;;;;;;4891663;29;20696;-95
2023/02/27 02:43:24;;;;;;;2.37;1.63;;;-2.20;99.90;;;;;;4879345;29;20246;-91
2023/02/27 02:46:08;;;;;;;2.50;1.93;;;-2.30;99.90;;;;;;4883166;29;20622;-91
2023/02/27 02:48:53;;;;;;;3.27;1.77;;;-2.20;99.90;;;;;;4883335;29;20229;-90
2023/02/27 02:51:41;;;;;;;3.17;2.07;;;-2.10;99.90;;;;;;4898821;29;20179;-93
2023/02/27 02:54:30;;;;;;;3.93;1.60;;;-2.20;99.90;;;;;;4883435;29;20179;-93
2023/02/27 02:57:35;;;;;;;4.30;2.10;;;-2.20;99.90;;;;;;4883208;29;20175;-91
2023/02/27 03:00:32;;;;;;;3.63;1.93;;;-2.20;99.90;;;;;;4882509;29;20202;-92
2023/02/27 03:03:35;;;;;;;3.97;2.00;;;-2.20;99.90;;;;;;4871799;29;20203;-93
2023/02/27 03:06:18;;;;;;;2.60;1.90;;;-2.20;99.90;;;;;;4883388;29;20614;-92
2023/02/27 03:08:55;;;;;;;2.17;1.70;;;-2.20;99.90;;;;;;4883117;29;20522;-92
2023/02/27 03:11:34;;;;;;;3.07;1.87;;;-2.30;99.90;;;;;;4882876;29;20206;-90
2023/02/27 03:14:15;;;;;;;3.70;1.70;;;-2.30;99.90;;;;;;4883395;29;20637;-90
2023/02/27 03:16:44;;;;;;;2.50;1.73;;;-2.30;99.90;;;;;;4883143;29;20274;-90
2023/02/27 03:19:17;;;;;;;3.40;1.60;;;-2.30;99.90;;;;;;4882970;29;20191;-91
2023/02/27 03:21:56;;;;;;;2.07;1.57;;;-2.30;99.90;;;;;;4882695;29;20248;-91
2023/02/27 03:24:32;;;;;;;4.00;1.70;;;-2.20;99.90;;;;;;4882961;29;20182;-90
2023/02/27 03:27:01;;;;;;;3.23;1.60;;;-2.30;99.90;;;;;;4883243;29;20277;-91
2023/02/27 03:29:46;;;;;;;4.53;1.87;;;-2.30;99.90;;;;;;4882941;29;20191;-90
2023/02/27 03:32:55;;;;;;;4.73;1.70;;;-2.40;99.90;;;;;;4899604;29;20600;-90
2023/02/27 03:35:23;;;;;;;2.33;1.53;;;-2.40;99.90;;;;;;4827032;29;20614;-91
2023/02/27 03:38:05;;;;;;;3.00;1.53;;;-2.40;99.90;;;;;;4877957;29;20221;-90
2023/02/27 03:40:41;;;;;;;3.03;1.90;;;-2.40;99.90;;;;;;4899376;29;20567;-90
2023/02/27 03:43:15;;;;;;;3.37;2.00;;;-2.40;99.90;;;;;;4882948;29;20211;-92
2023/02/27 03:46:10;;;;;;;7.03;2.10;;;-2.40;99.90;;;;;;4898397;29;20675;-92
2023/02/27 03:48:36;;;;;;;4.33;1.93;;;-2.50;99.90;;;;;;4882917;29;20508;-92
2023/02/27 03:51:02;;;;;;;2.70;1.80;;;-2.50;99.90;;;;;;4882729;29;20619;-92
2023/02/27 03:53:35;;;;;;;3.67;1.60;;;-2.50;99.90;;;;;;4882730;29;20534;-91
2023/02/27 03:56:04;;;;;;;2.33;1.70;;;-2.60;99.90;;;;;;4882697;29;20211;-93
2023/02/27 03:58:30;;;;;;;1.90;1.60;;;-2.60;99.90;;;;;;4882878;29;20274;-92
2023/02/27 04:00:56;;;;;;;6.50;1.97;;;-2.70;99.90;;;;;;4882687;29;20329;-93
2023/02/27 04:03:22;;;;;;;3.20;2.00;;;-2.80;99.90;;;;;;4884310;29;20186;-90
2023/02/27 04:05:48;;;;;;;1.80;1.50;;;-2.90;99.90;;;;;;4885621;29;20187;-90
2023/02/27 04:08:31;;;;;;;2.70;1.90;;;-2.90;99.90;;;;;;4885514;29;20597;-90
2023/02/27 04:11:15;;;;;;;3.93;1.90;;;-3.00;99.90;;;;;;4902192;29;20333;-90
2023/02/27 04:14:13;;;;;;;5.00;1.77;;;-3.00;99.90;;;;;;4886159;29;20174;-91
2023/02/27 04:16:51;;;;;;;2.73;1.60;;;-2.90;99.90;;;;;;4886171;29;20213;-90
2023/02/27 04:19:30;;;;;;;3.77;1.83;;;-2.90;99.90;;;;;;4885991;29;20182;-90
2023/02/27 04:22:51;;;;;;;6.27;2.00;;;-2.80;99.90;;;;;;4885529;29;20206;-90
2023/02/27 04:25:29;;;;;;;4.77;2.03;;;-2.80;99.90;;;;;;4873200;29;20214;-90
2023/02/27 04:28:25;;;;;;;5.83;1.93;;;-2.80;99.90;;;;;;4884837;29;20278;-89
2023/02/27 04:31:12;;;;;;;3.43;2.13;;;-2.80;99.90;;;;;;4885482;29;20178;-89
2023/02/27 04:33:55;;;;;;;2.53;1.50;;;-2.80;99.90;;;;;;4902253;29;20186;-89
2023/02/27 04:36:32;;;;;;;3.20;1.70;;;-2.80;99.90;;;;;;4885435;29;20181;-90
2023/02/27 04:39:04;;;;;;;2.87;1.80;;;-2.80;99.90;;;;;;4902277;29;20174;-89
2023/02/27 04:41:51;;;;;;;4.10;1.97;;;-2.80;99.90;;;;;;4885275;29;20221;-89
2023/02/27 04:44:21;;;;;;;3.60;1.70;;;-2.80;99.90;;;;;;4885367;29;20186;-88
2023/02/27 04:46:48;;;;;;;4.17;1.90;;;-2.90;99.90;;;;;;4885370;29;20179;-89
2023/02/27 04:49:36;;;;;;;2.97;1.87;;;-2.90;99.90;;;;;;4885177;29;20193;-89
2023/02/27 04:52:02;;;;;;;3.40;1.90;;;-2.90;99.90;;;;;;4885317;29;20607;-89
2023/02/27 04:55:03;;;;;;;3.47;1.57;;;-2.90;99.90;;;;;;4885176;29;20236;-91
2023/02/27 04:57:35;;;;;;;3.77;2.10;;;-2.90;99.90;;;;;;4882373;29;20187;-89
2023/02/27 05:00:06;;;;;;;3.13;1.80;;;-2.90;99.90;;;;;;4884836;29;20194;-89
2023/02/27 05:02:44;;;;;;;4.10;2.00;;;-2.80;99.90;;;;;;4885012;29;20230;-89
2023/02/27 05:05:15;;;;;;;5.53;1.93;;;-2.90;99.90;;;;;;4884988;29;20526;-89
2023/02/27 05:07:47;;;;;;;2.43;1.87;;;-2.80;99.90;;;;;;4885176;29;20182;-89
2023/02/27 05:10:21;;;;;;;6.87;2.30;;;-2.80;99.90;;;;;;4884396;29;20242;-89
2023/02/27 05:13:27;;;;;;;6.47;2.00;;;-2.80;99.90;;;;;;4879809;29;20186;-89
2023/02/27 05:16:02;;;;;;;6.77;1.97;;;-2.90;99.90;;;;;;4865871;29;20214;-89
2023/02/27 05:18:28;;;;;;;3.93;2.23;;;-2.90;99.90;;;;;;4866099;29;20191;-89
2023/02/27 05:21:26;;;;;;;3.87;2.10;;;-3.00;99.90;;;;;;4866203;29;20668;-89
2023/02/27 05:24:29;;;;;;;3.60;1.83;;;-3.10;99.90;;;;;;4866436;29;20246;-89
2023/02/27 05:27:30;;;;;;;4.93;1.87;;;-3.10;99.90;;;;;;4865330;29;20274;-89
2023/02/27 05:30:03;;;;;;;6.07;1.60;;;-3.20;99.90;;;;;;4863069;29;20187;-89
2023/02/27 05:32:42;;;;;;;3.40;2.00;;;-3.20;99.90;;;;;;4862815;29;20188;-89
2023/02/27 05:35:46;;;;;;;5.80;2.20;;;-3.20;99.90;;;;;;4863053;29;20180;-89
2023/02/27 05:38:30;;;;;;;3.57;2.20;;;-3.10;99.90;;;;;;4862774;29;20179;-89
2023/02/27 05:41:04;;;;;;;5.40;2.77;;;-3.20;99.90;;;;;;4872634;29;20207;-89
2023/02/27 05:43:39;;;;;;;3.87;2.40;;;-3.20;99.90;;;;;;4847359;29;20189;-89
2023/02/27 05:46:15;;;;;;;4.13;2.40;;;-3.10;99.90;;;;;;4847053;29;20175;-89
2023/02/27 05:49:10;;;;;;;5.53;2.50;;;-3.10;99.90;;;;;;4847257;29;20206;-90
2023/02/27 05:51:37;;;;;;;2.27;2.03;;;-3.10;99.90;;;;;;4862166;29;20203;-88
2023/02/27 05:54:14;;;;;;;4.93;2.30;;;-3.00;99.90;;;;;;4846998;29;20184;-90
2023/02/27 05:56:50;;;;;;;6.17;2.03;;;-3.00;99.90;;;;;;4864522;29;20194;-88
2023/02/27 05:59:25;;;;;;;2.57;1.90;;;-3.00;99.90;;;;;;4865417;29;20185;-89
2023/02/27 06:01:50;;;;;;;3.40;2.10;;;-3.00;99.90;;;;;;4880705;29;20662;-88
2023/02/27 06:04:32;;;;;;;3.60;1.93;;;-3.10;99.90;;;;;;4847127;29;20180;-88
2023/02/27 06:06:58;;;;;;;4.00;2.30;;;-3.20;99.90;;;;;;4847002;29;20180;-88
2023/02/27 06:09:24;;;;;;;2.93;1.93;;;-3.20;99.90;;;;;;4846470;29;20335;-88
2023/02/27 06:11:49;;;;;;;4.73;2.57;;;-3.30;99.90;;;;;;4863072;29;20188;-88
2023/02/27 06:14:15;;;;;;;4.47;2.33;;;-3.30;99.90;;;;;;4863172;29;20218;-88
2023/02/27 06:16:41;;;;;;;4.53;2.53;;;-3.30;99.90;;;;;;4846817;29;20517;-89
2023/02/27 06:19:06;;;;;;;6.03;2.57;;;-3.30;99.90;;;;;;4846762;29;20270;-88
2023/02/27 06:21:32;;;;;;;5.00;2.43;;;-3.20;99.90;;;;;;4846524;29;20301;-87
2023/02/27 06:23:57;;;;;;;8.63;2.57;;;-3.10;99.90;;;;;;4846749;29;20274;-89
2023/02/27 06:26:23;;;;;;;6.20;2.97;;;-3.10;99.90;;;;;;4868958;29;20190;-87
2023/02/27 06:28:49;;;;;;;4.30;2.37;;;-3.00;99.90;;;;;;4883675;29;20186;-87
2023/02/27 06:31:15;;;;;;;3.77;2.27;;;-2.90;99.90;;;;;;4883252;29;20182;-87
2023/02/27 06:33:42;;;;;;;2.97;2.10;;;-2.90;99.90;;;;;;4883432;29;20190;-87
2023/02/27 06:36:07;;;;;;;3.30;2.10;;;-2.80;99.90;;;;;;4883625;29;20178;-87
2023/02/27 06:38:33;;;;;;;3.90;1.97;;;-2.80;99.90;;;;;;4883584;29;20583;-89
2023/02/27 06:40:59;;;;;;;3.53;2.20;;;-2.70;99.90;;;;;;4882774;29;20259;-88
2023/02/27 06:43:26;;;;;;;3.30;2.17;;;-2.70;99.90;;;;;;4883328;29;20213;-88
2023/02/27 06:45:55;;;;;;;6.13;2.40;;;-2.60;99.90;;;;;;4898673;29;20187;-89
2023/02/27 06:48:21;;;;;;;5.57;2.53;;;-2.60;99.90;;;;;;4882132;29;20262;-88
2023/02/27 06:50:55;;;;;;;2.70;2.10;;;-2.50;99.90;;;;;;4883072;29;20214;-89
2023/02/27 06:53:22;;;;;;;3.87;2.10;;;-2.50;99.90;;;;;;4883240;29;20187;-90
2023/02/27 06:55:48;;;;;;;2.80;2.03;;;-2.40;99.90;;;;;;4883277;29;20626;-89
2023/02/27 06:58:14;;;;;;;3.57;2.20;;;-2.30;99.90;;;;;;4883450;29;20205;-89
2023/02/27 07:00:40;;;;;;;5.83;2.30;;;-2.20;99.90;;;;;;4882955;29;20215;-88
2023/02/27 07:03:06;;;;;;;3.20;2.20;;;-2.20;99.90;;;;;;4899563;29;20191;-88
2023/02/27 07:05:40;;;;;;;5.67;2.67;;;-2.10;99.90;;;;;;4883200;29;20202;-88
2023/02/27 07:08:05;;;;;;;6.37;2.50;;;-2.00;99.90;;;;;;4899659;29;20186;-86
2023/02/27 07:10:31;;;;;;;5.27;2.63;;;-2.00;99.90;;;;;;4882935;29;20230;-87
2023/02/27 07:12:57;;;;;;;7.67;3.27;;;-1.90;99.90;;;;;;4883011;29;20306;-89
2023/02/27 07:15:23;;;;;;;8.27;3.37;;;-1.90;99.90;;;;;;4883200;29;20200;-87
2023/02/27 07:17:49;;;;;;;8.80;4.23;;;-1.90;99.90;;;;;;4882586;29;20185;-87
2023/02/27 07:20:14;;;;;;;9.30;4.87;;;-1.90;99.90;;;;;;4882227;29;20679;-87
2023/02/27 07:22:40;;;;;;;7.83;4.07;;;-1.90;99.90;;;;;;4882289;29;20235;-87
2023/02/27 07:25:11;;;;;;;8.73;3.90;;;-1.90;99.90;;;;;;4882643;29;20248;-87
2023/02/27 07:27:37;;;;;;;6.30;3.03;;;-1.90;99.90;;;;;;4882938;29;20176;-86
2023/02/27 07:30:03;;;;;;;7.73;3.37;;;-1.90;99.90;;;;;;4899429;29;20172;-88
2023/02/27 07:32:29;;;;;;;4.60;2.77;;;-1.80;99.90;;;;;;4882842;29;20186;-86
2023/02/27 07:35:03;;;;;;;4.70;3.03;;;-1.70;99.90;;;;;;4883590;29;20207;-86
2023/02/27 07:37:29;;;;;;;8.90;3.37;;;-1.60;99.90;;;;;;4882956;29;20183;-87
2023/02/27 07:39:54;;;;;;;6.43;3.23;;;-1.60;99.90;;;;;;4885983;29;20662;-86
2023/02/27 07:42:20;;;;;;;3.90;2.77;;;-1.50;99.90;;;;;;4885937;29;20219;-85
2023/02/27 07:44:46;;;;;;;4.47;2.80;;;-1.50;99.90;;;;;;4901664;29;20187;-87
2023/02/27 07:47:11;;;;;;;6.93;2.77;;;-1.50;99.90;;;;;;4885840;29;20191;-86
2023/02/27 07:49:37;;;;;;;5.67;3.10;;;-1.40;99.90;;;;;;4885738;29;20529;-85
2023/02/27 07:52:03;;;;;;;6.60;3.50;;;-1.50;99.90;;;;;;4886014;29;20615;-86
2023/02/27 07:54:30;;;;;;;6.83;3.00;;;-1.40;99.90;;;;;;4885844;29;20191;-86
2023/02/27 07:56:56;;;;;;;4.37;2.50;;;-1.40;99.90;;;;;;4885789;29;20178;-87
2023/02/27 07:59:22;;;;;;;6.67;2.97;;;-1.40;99.90;;;;;;4885834;29;20616;-87
2023/02/27 08:01:47;;;;;;;3.87;2.47;;;-1.40;99.90;;;;;;4885706;29;20242;-87
2023/02/27 08:04:15;;;;;;;4.80;3.20;;;-1.40;99.90;;;;;;4885395;29;20670;-86
2023/02/27 08:06:41;;;;;;;6.27;2.60;;;-1.40;99.90;;;;;;4885888;29;20179;-91
2023/02/27 08:09:07;;;;;;;9.03;3.27;;;-1.40;99.90;;;;;;4885702;29;20552;-87
2023/02/27 08:11:32;;;;;;;5.13;2.80;;;-1.30;99.90;;;;;;4885680;29;20188;-91
2023/02/27 08:13:59;;;;;;;6.80;3.00;;;-1.20;99.90;;;;;;4902748;29;20175;-90
2023/02/27 08:16:25;;;;;;;8.10;3.17;;;-1.10;99.90;;;;;;4902428;29;20517;-90
2023/02/27 08:18:50;;;;;;;4.33;2.40;;;-1.10;99.90;;;;;;4885009;29;20187;-85
2023/02/27 08:21:16;;;;;;;8.70;2.60;;;-1.00;99.90;;;;;;4884631;29;20222;-84
2023/02/27 08:23:41;;;;;;;8.23;2.97;;;-0.90;99.90;;;;;;4884786;29;20182;-84
2023/02/27 08:26:07;;;;;;;6.17;3.20;;;-0.90;99.90;;;;;;4899057;29;20584;-85
2023/02/27 08:28:33;;;;;;;5.87;2.73;;;-0.80;99.90;;;;;;4884684;29;20324;-83
2023/02/27 08:30:58;;;;;;;4.07;2.80;;;-0.80;99.90;;;;;;4900513;29;20274;-86
2023/02/27 08:33:25;;;;;;;7.17;3.57;;;-0.70;99.90;;;;;;4899782;29;20711;-86
2023/02/27 08:35:50;;;;;;;3.90;2.80;;;-0.70;99.90;;;;;;4899834;29;20203;-84
2023/02/27 08:38:16;;;;;;;8.43;2.83;;;-0.70;99.90;;;;;;4884303;29;20214;-86
2023/02/27 08:40:42;;;;;;;8.50;2.73;;;-0.60;99.90;;;;;;4900789;29;20206;-83
2023/02/27 08:43:07;;;;;;;6.13;3.20;;;-0.50;99.90;;;;;;4900860;29;20179;-83
2023/02/27 08:45:33;;;;;;;6.63;2.90;;;-0.40;99.90;;;;;;4899468;29;20302;-83
2023/02/27 08:47:58;;;;;;;10.80;2.70;;;-0.40;99.90;;;;;;4883889;29;20207;-83
2023/02/27 08:50:24;;;;;;;7.33;3.47;;;-0.30;99.90;;;;;;4899097;29;20239;-82
2023/02/27 08:52:50;;;;;;;5.37;2.93;;;-0.20;99.90;;;;;;4883752;29;20685;-82
2023/02/27 08:55:16;;;;;;;8.00;3.20;;;-0.20;99.90;;;;;;4883765;29;20187;-82
2023/02/27 08:57:41;;;;;;;5.63;3.00;;;-0.10;99.90;;;;;;4883715;29;20179;-83
2023/02/27 09:00:09;;;;;;;4.93;2.80;;;0.00;99.90;;;;;;4883670;29;20645;-83
2023/02/27 09:02:35;;;;;;;6.27;3.07;;;0.00;99.90;;;;;;4899179;29;20215;-83
2023/02/27 09:05:00;;;;;;;6.73;3.00;;;0.10;99.90;;;;;;4884993;29;20184;-82
2023/02/27 09:07:26;;;;;;;8.83;3.23;;;0.10;99.90;;;;;;4865039;29;20571;-82
2023/02/27 09:09:52;;;;;;;4.70;3.03;;;0.10;99.90;;;;;;4864680;29;20241;-82
2023/02/27 09:12:18;;;;;;;6.50;3.10;;;0.20;99.90;;;;;;4881398;29;20184;-82
2023/02/27 09:14:43;;;;;;;7.47;3.50;;;0.20;99.90;;;;;;4864977;29;20183;-83
2023/02/27 09:17:09;;;;;;;8.87;3.30;;;0.20;99.90;;;;;;4881652;29;20221;-81
2023/02/27 09:19:35;;;;;;;6.10;3.00;;;0.20;99.90;;;;;;4864775;29;20623;-83
2023/02/27 09:22:01;;;;;;;4.67;3.03;;;0.30;99.90;;;;;;4864545;29;20224;-82
2023/02/27 09:24:26;;;;;;;4.93;3.00;;;0.40;99.90;;;;;;4864809;29;20182;-83
2023/02/27 09:26:52;;;;;;;7.63;3.30;;;0.40;99.90;;;;;;4864476;29;20283;-83
2023/02/27 09:29:18;;;;;;;5.93;3.10;;;0.50;99.90;;;;;;4864693;29;20180;-83
2023/02/27 09:31:43;;;;;;;5.03;3.20;;;0.60;99.90;;;;;;4864619;29;20251;-84
2023/02/27 09:34:12;;;;;;;5.63;3.20;;;0.60;99.90;;;;;;4880077;29;20594;-84
2023/02/27 09:36:38;;;;;;;4.67;3.00;;;0.60;99.90;;;;;;4880007;29;20521;-82
2023/02/27 09:39:04;;;;;;;6.63;3.40;;;0.70;99.90;;;;;;4881232;29;20226;-82
2023/02/27 09:41:40;;;;;;;5.87;3.13;;;0.80;99.90;;;;;;4864230;29;20576;-83
2023/02/27 09:44:29;;;;;;;5.30;2.70;;;0.80;99.90;;;;;;4881288;29;20623;-83
2023/02/27 09:46:55;;;;;;;4.23;2.87;;;0.90;99.90;;;;;;4879799;29;20184;-82
2023/02/27 09:49:26;;;;;;;7.70;3.47;;;1.00;99.90;;;;;;4864647;29;20635;-83
2023/02/27 09:51:52;;;;;;;4.23;2.93;;;1.00;99.90;;;;;;4863292;29;20259;-83
2023/02/27 09:54:18;;;;;;;7.03;3.07;;;1.10;99.90;;;;;;4863528;29;20335;-84
2023/02/27 09:56:49;;;;;;;7.73;3.13;;;1.20;99.90;;;;;;4876549;29;20564;-83
2023/02/27 09:59:30;;;;;;;9.50;3.03;;;1.30;99.90;;;;;;4880296;29;20179;-82
2023/02/27 10:02:18;;;;;;;9.00;3.20;;;1.40;99.90;;;;;;4877051;29;20335;-82
2023/02/27 10:05:09;;;;;;;4.33;2.50;;;1.50;99.90;;;;;;4863332;29;20252;-83
2023/02/27 10:08:03;;;;;;;4.83;2.70;;;1.60;99.90;;;;;;4879027;29;20273;-82
2023/02/27 10:10:44;;;;;;;4.90;2.57;;;1.70;99.90;;;;;;4880373;29;20294;-84
2023/02/27 10:13:40;;;;;;;4.20;2.17;;;1.80;99.90;;;;;;4880505;29;20175;-83
2023/02/27 10:16:12;;;;;;;5.83;2.50;;;1.90;99.90;;;;;;4879397;29;20178;-82
2023/02/27 10:18:47;;;;;;;7.27;2.43;;;2.00;99.90;;;;;;4878925;29;20193;-82
2023/02/27 10:21:18;;;;;;;3.90;2.47;;;2.10;99.90;;;;;;4880535;29;20205;-83
2023/02/27 10:24:28;;;;;;;4.70;2.60;;;2.10;99.90;;;;;;4879353;29;20248;-83
2023/02/27 10:26:59;;;;;;;4.40;2.23;;;2.20;99.90;;;;;;4846716;29;20196;-82
2023/02/27 10:29:35;;;;;;;7.67;2.03;;;2.40;99.90;;;;;;4861822;29;20248;-81
2023/02/27 10:32:22;;;;;;;3.43;1.90;;;2.60;99.90;;;;;;4860555;29;20237;-81
2023/02/27 10:34:57;;;;;;;7.60;2.27;;;2.60;99.90;;;;;;4860610;29;20180;-80
2023/02/27 10:37:25;;;;;;;6.63;3.57;;;2.70;99.90;;;;;;4861800;29;20271;-81
2023/02/27 10:40:03;;;;;;;3.63;2.30;;;2.70;99.90;;;;;;4875789;29;20520;-81
2023/02/27 10:42:34;;;;;;;6.77;2.27;;;2.80;99.90;;;;;;4861415;29;20204;-82
2023/02/27 10:45:00;;;;;;;8.37;2.30;;;2.90;99.90;;;;;;4875948;29;20172;-81
2023/02/27 10:47:26;;;;;;;3.30;2.47;;;2.90;99.90;;;;;;4860318;29;20188;-80
2023/02/27 10:49:53;;;;;;;4.83;2.17;;;3.00;99.90;;;;;;4860014;29;20208;-81
2023/02/27 10:52:19;;;;;;;5.67;3.00;;;3.10;99.90;;;;;;4861570;29;20571;-82
2023/02/27 10:54:45;;;;;;;6.17;2.83;;;3.10;99.90;;;;;;4878319;29;20223;-81
2023/02/27 10:57:29;;;;;;;8.60;2.40;;;3.20;99.90;;;;;;4896186;29;20187;-81
2023/02/27 11:00:05;;;;;;;6.30;3.23;;;3.20;99.90;;;;;;4894714;29;20529;-82
2023/02/27 11:02:49;;;;;;;4.73;2.43;;;3.30;99.90;;;;;;4861993;29;20727;-81
2023/02/27 11:05:32;;;;;;;3.83;1.87;;;3.30;99.90;;;;;;4878762;29;20531;-81
2023/02/27 11:08:19;;;;;;;5.17;1.80;;;3.20;99.90;;;;;;4863548;29;20183;-80
2023/02/27 11:10:54;;;;;;;3.57;2.03;;;3.10;99.90;;;;;;4860952;29;20688;-81
2023/02/27 11:13:24;;;;;;;4.10;1.77;;;3.00;99.90;;;;;;4864358;29;20180;-79
2023/02/27 11:16:12;;;;;;;6.30;2.13;;;3.10;99.90;;;;;;4865017;29;20529;-79
2023/02/27 11:18:40;;;;;;;8.70;2.07;;;3.20;99.90;;;;;;4863701;29;20184;-79
2023/02/27 11:21:21;;;;;;;6.07;1.80;;;3.10;99.90;;;;;;4864963;29;20549;-79
2023/02/27 11:24:17;;;;;;;3.90;1.87;;;3.00;99.90;;;;;;4865044;29;20169;-80
2023/02/27 11:26:55;;;;;;;4.17;2.00;;;2.90;99.90;;;;;;4889890;29;20184;-80
2023/02/27 11:29:21;;;;;;;5.53;2.10;;;2.80;99.90;;;;;;4900517;29;20190;-79
2023/02/27 11:32:00;;;;;;;4.60;2.00;;;2.70;99.90;;;;;;4902052;29;20210;-80
2023/02/27 11:34:31;;;;;;;6.93;2.47;;;2.80;99.90;;;;;;4902149;29;20277;-81
2023/02/27 11:37:18;;;;;;;3.30;1.43;;;2.80;99.90;;;;;;4885196;29;20175;-80
2023/02/27 11:40:00;;;;;;;6.13;1.83;;;3.10;99.90;;;;;;4884829;29;20184;-80
2023/02/27 11:42:31;;;;;;;4.07;1.70;;;3.40;99.90;;;;;;4901700;29;20211;-79
2023/02/27 11:45:01;;;;;;;2.90;1.30;;;3.50;99.90;;;;;;4901999;29;20278;-79
2023/02/27 11:47:37;;;;;;;3.87;1.40;;;3.50;99.90;;;;;;4901776;29;20171;-79
2023/02/27 11:50:12;;;;;;;2.03;1.40;;;3.40;99.90;;;;;;4884803;29;20226;-79
2023/02/27 11:53:07;;;;;;;6.50;1.67;;;3.20;99.90;;;;;;4901817;29;20645;-79
2023/02/27 11:55:33;;;;;;;8.30;1.57;;;3.10;99.90;;;;;;4888150;29;20628;-80
2023/02/27 11:58:09;;;;;;;4.13;1.30;;;3.10;99.90;;;;;;4901409;29;20187;-79
2023/02/27 12:01:04;;;;;;;6.13;1.60;;;3.30;99.90;;;;;;4901249;29;20622;-80
2023/02/27 12:04:07;;;;;;;5.07;1.63;;;3.60;99.90;;;;;;4879394;29;20210;-79
2023/02/27 12:06:50;;;;;;;2.40;1.20;;;3.50;99.90;;;;;;4901369;29;20179;-79
2023/02/27 12:09:38;;;;;;;3.77;1.53;;;3.60;99.90;;;;;;4900799;29;20231;-79
2023/02/27 12:12:26;;;;;;;4.43;1.90;;;3.60;99.90;;;;;;4901186;29;20617;-79
2023/02/27 12:15:09;;;;;;;2.53;1.90;;;3.60;99.90;;;;;;4883962;29;20274;-79
2023/02/27 12:18:02;;;;;;;3.53;1.57;;;3.80;99.90;;;;;;4901197;29;20182;-79
2023/02/27 12:21:00;;;;;;;2.93;1.60;;;3.90;99.90;;;;;;4876356;29;20198;-78
2023/02/27 12:23:45;;;;;;;5.53;2.27;;;3.80;99.90;;;;;;4886896;29;20611;-79
2023/02/27 12:26:21;;;;;;;4.60;1.50;;;3.80;99.90;;;;;;4901127;29;20646;-78
2023/02/27 12:28:55;;;;;;;2.70;1.20;;;3.80;99.90;;;;;;4901133;29;20171;-78
2023/02/27 12:31:33;;;;;;;1.40;0.93;;;3.90;99.90;;;;;;4883913;29;20197;-78
2023/02/27 12:34:12;;;;;;;3.63;1.10;;;4.10;99.90;;;;;;4900921;29;20218;-78
2023/02/27 12:36:38;;;;;;;2.80;1.10;;;4.50;99.90;;;;;;4900846;29;20177;-78
2023/02/27 12:39:04;;;;;;;6.53;2.90;;;4.80;99.90;;;;;;4900837;29;20175;-78
2023/02/27 12:41:48;;;;;;;4.00;1.90;;;4.80;99.90;;;;;;4900105;29;20211;-78
2023/02/27 12:44:36;;;;;;;1.90;1.17;;;4.60;99.90;;;;;;4900731;29;20287;-78
2023/02/27 12:47:36;;;;;;;3.37;1.57;;;4.50;99.90;;;;;;4900805;29;20163;-78
2023/02/27 12:50:05;;;;;;;3.10;1.53;;;4.40;99.90;;;;;;4900502;29;20156;-78
2023/02/27 12:52:48;;;;;;;6.13;3.03;;;4.30;99.90;;;;;;4900057;29;20191;-78
2023/02/27 12:55:32;;;;;;;6.33;3.17;;;4.20;99.90;;;;;;4900619;29;20171;-77
2023/02/27 12:58:00;;;;;;;11.83;4.83;;;4.10;99.90;;;;;;4900386;29;20163;-78
2023/02/27 13:00:34;;;;;;;6.30;3.23;;;4.10;99.90;;;;;;4900146;29;20307;-78
2023/02/27 13:03:15;;;;;;;8.77;3.40;;;4.00;99.90;;;;;;4900333;29;20194;-78
2023/02/27 13:05:49;;;;;;;2.97;1.50;;;4.00;99.90;;;;;;4900503;29;20254;-78
2023/02/27 13:08:24;;;;;;;2.67;1.10;;;4.00;99.90;;;;;;4883498;29;20179;-78
2023/02/27 13:10:55;;;;;;;2.27;1.20;;;3.90;99.90;;;;;;4899885;29;20583;-79
2023/02/27 13:13:37;;;;;;;4.07;1.90;;;3.90;99.90;;;;;;4899949;29;20187;-78
2023/02/27 13:16:25;;;;;;;4.27;1.60;;;3.90;99.90;;;;;;4900264;29;20176;-78
2023/02/27 13:18:56;;;;;;;2.23;1.00;;;4.00;99.90;;;;;;4900219;29;20164;-79
2023/02/27 13:21:36;;;;;;;2.90;0.97;;;4.00;99.90;;;;;;4899640;29;20301;-79
2023/02/27 13:24:26;;;;;;;1.40;0.83;;;4.10;99.90;;;;;;4899931;29;20235;-78
2023/02/27 13:27:00;;;;;;;1.27;0.93;;;4.10;99.90;;;;;;4899558;29;20210;-78
2023/02/27 13:29:34;;;;;;;3.10;1.10;;;4.10;99.90;;;;;;4898381;29;20630;-78